Time;durP1;ratioP1;P1;durP2;ratioP2;P2;SDS_P1;SDS_P2;PMS_P1;PMS_P2;Temp;Humidity;BMP_temperature;BMP_pressure;BME280_temperature;BME280_humidity;BME280_pressure;Samples;Min_cycle;Max_cycle;Signal;HPM_P1;HPM_P2
2021/11/06 00:00:58;;;;;;;19.35;6.97;;;;;;;;;;5045890;28;20046;-67
2021/11/06 00:03:24;;;;;;;21.70;8.25;;;;;;;;;;5045215;28;20029;-67
2021/11/06 00:05:50;;;;;;;20.50;9.10;;;;;;;;;;5050988;28;20025;-66
2021/11/06 00:08:16;;;;;;;20.98;8.13;;;;;;;;;;5050935;28;20029;-67
2021/11/06 00:10:42;;;;;;;18.67;7.53;;;;;;;;;;5049916;28;20116;-67
2021/11/06 00:13:08;;;;;;;18.95;7.25;;;;;;;;;;5057023;28;20114;-67
2021/11/06 00:15:35;;;;;;;19.45;7.93;;;;;;;;;;5052658;28;20064;-68
2021/11/06 00:18:01;;;;;;;16.38;6.13;;;;;;;;;;5055530;28;20115;-66
2021/11/06 00:20:27;;;;;;;14.50;5.20;;;;;;;;;;5050452;28;20120;-68
2021/11/06 00:22:53;;;;;;;19.15;7.53;;;;;;;;;;5051619;28;20166;-68
2021/11/06 00:25:19;;;;;;;23.48;9.38;;;;;;;;;;5051954;28;20029;-68
2021/11/06 00:27:46;;;;;;;19.92;8.70;;;;;;;;;;5050731;28;20029;-67
2021/11/06 00:30:12;;;;;;;18.70;8.38;;;;;;;;;;5051875;28;20333;-66
2021/11/06 00:32:39;;;;;;;19.52;9.38;;;;;;;;;;5057701;28;20469;-66
2021/11/06 00:35:07;;;;;;;25.65;10.10;;;;;;;;;;5050798;28;20473;-66
2021/11/06 00:37:33;;;;;;;;;;;;;;;;;;5052837;28;20542;-66
2021/11/06 00:39:59;;;;;;;28.63;11.23;;;;;;;;;;5051163;28;19948;-67
2021/11/06 00:42:25;;;;;;;23.10;8.95;;;;;;;;;;5057268;28;20041;-66
2021/11/06 00:44:51;;;;;;;22.45;8.98;;;;;;;;;;5064895;28;20388;-67
2021/11/06 00:47:17;;;;;;;21.15;8.23;;;;;;;;;;5052050;28;20116;-66
2021/11/06 00:49:43;;;;;;;18.67;8.52;;;;;;;;;;5053274;28;20025;-66
2021/11/06 00:52:09;;;;;;;20.42;8.00;;;;;;;;;;5053289;28;20494;-68
2021/11/06 00:54:35;;;;;;;21.77;8.05;;;;;;;;;;5056405;28;20442;-66
2021/11/06 00:57:01;;;;;;;19.75;8.30;;;;;;;;;;5059309;28;20116;-66
2021/11/06 00:59:27;;;;;;;17.65;8.13;;;;;;;;;;5048775;28;20068;-66
2021/11/06 01:01:54;;;;;;;21.02;8.65;;;;;;;;;;5052813;28;20112;-66
2021/11/06 01:04:20;;;;;;;21.55;8.73;;;;;;;;;;5063024;28;20021;-66
2021/11/06 01:06:46;;;;;;;20.50;7.78;;;;;;;;;;5062603;28;20080;-67
2021/11/06 01:09:12;;;;;;;19.27;7.30;;;;;;;;;;5050860;28;20017;-66
2021/11/06 01:11:40;;;;;;;26.77;10.18;;;;;;;;;;5059485;28;20479;-66
2021/11/06 01:14:07;;;;;;;24.95;8.32;;;;;;;;;;5056867;28;20033;-66
2021/11/06 01:16:33;;;;;;;20.75;8.45;;;;;;;;;;5050119;28;20021;-66
2021/11/06 01:18:59;;;;;;;20.63;8.35;;;;;;;;;;5058303;28;20033;-66
2021/11/06 01:21:25;;;;;;;20.75;7.63;;;;;;;;;;5065393;28;20028;-66
2021/11/06 01:23:51;;;;;;;18.40;6.18;;;;;;;;;;5052457;28;20448;-67
2021/11/06 01:26:18;;;;;;;16.48;6.47;;;;;;;;;;5056004;28;20074;-67
2021/11/06 01:28:44;;;;;;;16.67;7.03;;;;;;;;;;5057218;28;20024;-67
2021/11/06 01:31:10;;;;;;;14.32;6.57;;;;;;;;;;5062510;28;20033;-66
2021/11/06 01:33:36;;;;;;;15.38;6.13;;;;;;;;;;5057719;28;20054;-67
2021/11/06 01:36:03;;;;;;;11.18;4.30;;;;;;;;;;5061766;28;20024;-67
2021/11/06 01:38:30;;;;;;;15.05;4.97;;;;;;;;;;5055378;28;20528;-66
2021/11/06 01:40:56;;;;;;;14.70;4.93;;;;;;;;;;5058724;28;20035;-66
2021/11/06 01:43:23;;;;;;;13.77;5.18;;;;;;;;;;5061273;28;20255;-67
2021/11/06 01:45:59;;;;;;;14.27;5.63;;;;;;;;;;5057924;28;20022;-67
2021/11/06 01:48:25;;;;;;;17.10;5.97;;;;;;;;;;5056436;28;20040;-66
2021/11/06 01:50:52;;;;;;;17.48;7.13;;;;;;;;;;5060759;28;20039;-67
2021/11/06 01:53:18;;;;;;;17.42;7.22;;;;;;;;;;5056907;28;20112;-67
2021/11/06 01:55:44;;;;;;;14.23;6.15;;;;;;;;;;5058243;28;20091;-66
2021/11/06 01:58:10;;;;;;;15.27;6.10;;;;;;;;;;5056756;28;20029;-66
2021/11/06 02:00:36;;;;;;;15.50;6.18;;;;;;;;;;5061713;28;20060;-66
2021/11/06 02:03:03;;;;;;;11.10;5.10;;;;;;;;;;5055800;28;20030;-67
2021/11/06 02:05:29;;;;;;;16.95;4.60;;;;;;;;;;5055037;28;20048;-66
2021/11/06 02:07:55;;;;;;;9.20;3.70;;;;;;;;;;5055316;28;20025;-67
2021/11/06 02:10:21;;;;;;;10.38;4.07;;;;;;;;;;5062856;28;20081;-67
2021/11/06 02:12:47;;;;;;;12.20;5.18;;;;;;;;;;5060313;28;20037;-67
2021/11/06 02:15:15;;;;;;;13.52;5.20;;;;;;;;;;5055612;28;20028;-67
2021/11/06 02:17:42;;;;;;;14.35;4.32;;;;;;;;;;5055298;28;20040;-66
2021/11/06 02:20:09;;;;;;;7.85;3.13;;;;;;;;;;5059139;28;20013;-67
2021/11/06 02:22:35;;;;;;;8.73;3.20;;;;;;;;;;5061235;28;20029;-67
2021/11/06 02:25:01;;;;;;;13.75;5.15;;;;;;;;;;5061299;28;20029;-67
2021/11/06 02:27:27;;;;;;;9.73;4.22;;;;;;;;;;5063398;28;20567;-66
2021/11/06 02:29:53;;;;;;;10.98;4.93;;;;;;;;;;5064632;28;20107;-67
2021/11/06 02:32:20;;;;;;;8.85;4.10;;;;;;;;;;5058103;28;20094;-67
2021/11/06 02:34:46;;;;;;;10.43;4.28;;;;;;;;;;5053866;28;20053;-66
2021/11/06 02:37:12;;;;;;;10.40;4.40;;;;;;;;;;5064312;28;20112;-67
2021/11/06 02:39:38;;;;;;;9.10;4.00;;;;;;;;;;5064802;28;20039;-67
2021/11/06 02:42:06;;;;;;;12.90;4.90;;;;;;;;;;5053452;28;20025;-66
2021/11/06 02:44:32;;;;;;;6.35;3.20;;;;;;;;;;5053990;28;20452;-67
2021/11/06 02:46:58;;;;;;;8.18;3.22;;;;;;;;;;5058488;28;20064;-66
2021/11/06 02:49:25;;;;;;;11.27;4.10;;;;;;;;;;5063633;28;20059;-66
2021/11/06 02:51:51;;;;;;;9.20;4.10;;;;;;;;;;5056511;28;20120;-66
2021/11/06 02:54:17;;;;;;;12.93;4.80;;;;;;;;;;5066380;28;20077;-66
2021/11/06 02:56:43;;;;;;;10.52;4.15;;;;;;;;;;5060226;28;20060;-66
2021/11/06 02:59:09;;;;;;;9.02;3.92;;;;;;;;;;5059745;28;20027;-66
2021/11/06 03:01:35;;;;;;;10.13;4.45;;;;;;;;;;5063837;28;20028;-67
2021/11/06 03:04:01;;;;;;;9.38;3.55;;;;;;;;;;5060625;28;20417;-67
2021/11/06 03:06:27;;;;;;;6.55;2.90;;;;;;;;;;5062728;28;20472;-67
2021/11/06 03:08:53;;;;;;;13.43;3.55;;;;;;;;;;5063071;28;20538;-67
2021/11/06 03:11:19;;;;;;;7.22;3.33;;;;;;;;;;5063822;28;20032;-67
2021/11/06 03:13:46;;;;;;;7.07;3.08;;;;;;;;;;5059854;28;20028;-66
2021/11/06 03:16:13;;;;;;;6.03;2.95;;;;;;;;;;5058713;28;20025;-67
2021/11/06 03:18:39;;;;;;;7.60;3.47;;;;;;;;;;5062107;28;20020;-67
2021/11/06 03:21:05;;;;;;;5.22;2.55;;;;;;;;;;5054340;28;20388;-67
2021/11/06 03:23:32;;;;;;;7.88;3.17;;;;;;;;;;5061072;28;20021;-67
2021/11/06 03:25:58;;;;;;;9.15;3.50;;;;;;;;;;5062428;28;20025;-67
2021/11/06 03:28:24;;;;;;;13.05;3.50;;;;;;;;;;5064096;28;20040;-67
2021/11/06 03:30:50;;;;;;;8.52;2.88;;;;;;;;;;5052495;28;20057;-67
2021/11/06 03:33:16;;;;;;;11.35;3.78;;;;;;;;;;5063974;28;20419;-67
2021/11/06 03:35:42;;;;;;;8.50;3.25;;;;;;;;;;5057982;28;20024;-67
2021/11/06 03:38:08;;;;;;;6.90;3.10;;;;;;;;;;5058285;28;20075;-67
2021/11/06 03:40:35;;;;;;;6.20;2.53;;;;;;;;;;5059725;28;20029;-67
2021/11/06 03:43:01;;;;;;;6.25;2.65;;;;;;;;;;5064110;28;20088;-67
2021/11/06 03:45:27;;;;;;;4.55;2.10;;;;;;;;;;5065862;28;20055;-67
2021/11/06 03:47:53;;;;;;;4.53;1.90;;;;;;;;;;5054704;28;20043;-67
2021/11/06 03:50:19;;;;;;;4.68;1.42;;;;;;;;;;5056908;28;20032;-67
2021/11/06 03:52:45;;;;;;;6.30;2.25;;;;;;;;;;5057861;28;20025;-67
2021/11/06 03:55:11;;;;;;;6.15;2.67;;;;;;;;;;5049501;28;20033;-67
2021/11/06 03:57:38;;;;;;;6.90;2.83;;;;;;;;;;5058303;28;20028;-67
2021/11/06 04:00:07;;;;;;;7.25;2.67;;;;;;;;;;5064580;28;20107;-66
2021/11/06 04:02:33;;;;;;;5.63;2.63;;;;;;;;;;5051032;28;20036;-67
2021/11/06 04:05:00;;;;;;;8.50;2.97;;;;;;;;;;5050785;28;20029;-67
2021/11/06 04:07:26;;;;;;;6.50;2.50;;;;;;;;;;5048945;28;20025;-67
2021/11/06 04:09:52;;;;;;;7.32;3.03;;;;;;;;;;5061574;28;20511;-67
2021/11/06 04:12:18;;;;;;;6.15;2.70;;;;;;;;;;5057226;28;20032;-67
2021/11/06 04:14:44;;;;;;;3.53;1.70;;;;;;;;;;5051841;28;20064;-67
2021/11/06 04:17:10;;;;;;;3.55;1.70;;;;;;;;;;5057004;28;20048;-67
2021/11/06 04:19:36;;;;;;;3.80;1.75;;;;;;;;;;5061984;28;20021;-67
2021/11/06 04:22:02;;;;;;;3.67;1.80;;;;;;;;;;5059278;28;20033;-67
2021/11/06 04:24:28;;;;;;;6.97;1.95;;;;;;;;;;5059585;28;20052;-67
2021/11/06 04:26:55;;;;;;;6.05;2.42;;;;;;;;;;5050304;28;20037;-67
2021/11/06 04:29:21;;;;;;;5.90;2.47;;;;;;;;;;5057147;28;20020;-67
2021/11/06 04:31:46;;;;;;;6.82;3.05;;;;;;;;;;5057216;28;20048;-67
2021/11/06 04:34:12;;;;;;;8.90;1.90;;;;;;;;;;5058042;28;20623;-67
2021/11/06 04:36:38;;;;;;;4.47;2.03;;;;;;;;;;5059390;28;20033;-67
2021/11/06 04:39:05;;;;;;;6.57;2.38;;;;;;;;;;5061126;28;20024;-67
2021/11/06 04:41:31;;;;;;;8.95;2.20;;;;;;;;;;5059609;28;20039;-67
2021/11/06 04:43:57;;;;;;;6.97;2.15;;;;;;;;;;5058219;28;20029;-67
2021/11/06 04:46:23;;;;;;;3.80;2.05;;;;;;;;;;5050090;28;20318;-67
2021/11/06 04:48:49;;;;;;;5.32;2.10;;;;;;;;;;5057563;28;20108;-67
2021/11/06 04:51:15;;;;;;;5.00;2.08;;;;;;;;;;5065247;28;20127;-67
2021/11/06 04:53:41;;;;;;;4.55;2.50;;;;;;;;;;5058211;28;20021;-67
2021/11/06 04:56:07;;;;;;;6.63;2.60;;;;;;;;;;5056342;28;20040;-67
2021/11/06 04:58:33;;;;;;;5.32;2.50;;;;;;;;;;5058606;28;20021;-67
2021/11/06 05:00:59;;;;;;;6.28;2.45;;;;;;;;;;5059862;28;20072;-67
2021/11/06 05:03:25;;;;;;;6.38;2.30;;;;;;;;;;5066048;28;20029;-67
2021/11/06 05:05:50;;;;;;;4.95;1.98;;;;;;;;;;5057289;28;20036;-67
2021/11/06 05:08:16;;;;;;;5.18;2.03;;;;;;;;;;5059193;28;20024;-67
2021/11/06 05:10:42;;;;;;;5.60;2.20;;;;;;;;;;5060175;28;20028;-67
2021/11/06 05:13:09;;;;;;;5.85;2.40;;;;;;;;;;5058207;28;20037;-67
2021/11/06 05:15:35;;;;;;;7.75;2.05;;;;;;;;;;5056624;28;20031;-67
2021/11/06 05:18:01;;;;;;;4.97;1.88;;;;;;;;;;5049123;28;20028;-67
2021/11/06 05:20:27;;;;;;;3.65;1.63;;;;;;;;;;5057665;28;20028;-67
2021/11/06 05:22:53;;;;;;;6.07;2.33;;;;;;;;;;5055146;28;20041;-67
2021/11/06 05:25:19;;;;;;;4.07;1.83;;;;;;;;;;5059914;28;20032;-67
2021/11/06 05:27:45;;;;;;;4.70;2.13;;;;;;;;;;5062275;28;20542;-67
2021/11/06 05:30:12;;;;;;;5.63;1.80;;;;;;;;;;5063431;28;20024;-67
2021/11/06 05:32:39;;;;;;;4.38;2.00;;;;;;;;;;5050866;28;20045;-67
2021/11/06 05:35:06;;;;;;;5.18;2.00;;;;;;;;;;5048522;28;20090;-67
2021/11/06 05:37:32;;;;;;;5.32;1.60;;;;;;;;;;5050557;28;20504;-67
2021/11/06 05:39:58;;;;;;;4.32;1.70;;;;;;;;;;5058582;28;20120;-67
2021/11/06 05:42:24;;;;;;;3.65;1.50;;;;;;;;;;5064303;28;20468;-67
2021/11/06 05:44:50;;;;;;;5.45;1.88;;;;;;;;;;5075529;28;20028;-67
2021/11/06 05:47:16;;;;;;;4.35;1.70;;;;;;;;;;5054376;28;20059;-67
2021/11/06 05:49:43;;;;;;;7.95;1.73;;;;;;;;;;5055832;28;20025;-67
2021/11/06 05:52:09;;;;;;;3.97;1.40;;;;;;;;;;5052015;28;20543;-68
2021/11/06 05:54:35;;;;;;;3.53;1.60;;;;;;;;;;5054056;28;20036;-68
2021/11/06 05:57:01;;;;;;;3.90;1.67;;;;;;;;;;5052155;28;20107;-68
2021/11/06 05:59:27;;;;;;;8.40;1.67;;;;;;;;;;5052094;28;20105;-67
2021/11/06 06:01:57;;;;;;;3.83;1.65;;;;;;;;;;5051992;28;20548;-68
2021/11/06 06:04:24;;;;;;;3.53;1.40;;;;;;;;;;5052977;28;20029;-68
2021/11/06 06:06:50;;;;;;;6.72;1.83;;;;;;;;;;5056050;28;20025;-67
2021/11/06 06:09:16;;;;;;;3.55;1.80;;;;;;;;;;5057110;28;20083;-68
2021/11/06 06:11:42;;;;;;;5.85;2.20;;;;;;;;;;5053406;28;20534;-67
2021/11/06 06:14:08;;;;;;;5.13;1.30;;;;;;;;;;5053130;28;20087;-66
2021/11/06 06:16:34;;;;;;;3.08;1.30;;;;;;;;;;5053632;28;20468;-69
2021/11/06 06:19:01;;;;;;;3.30;1.27;;;;;;;;;;5052895;28;20055;-67
2021/11/06 06:21:27;;;;;;;4.05;1.40;;;;;;;;;;5058159;28;20029;-69
2021/11/06 06:23:53;;;;;;;5.57;1.48;;;;;;;;;;5058373;28;20035;-68
2021/11/06 06:26:20;;;;;;;3.25;1.58;;;;;;;;;;5057653;28;20332;-68
2021/11/06 06:28:46;;;;;;;3.05;1.60;;;;;;;;;;5061178;28;20032;-70
2021/11/06 06:31:12;;;;;;;4.10;1.50;;;;;;;;;;5058934;28;20399;-67
2021/11/06 06:33:38;;;;;;;5.43;1.45;;;;;;;;;;5066010;28;20059;-67
2021/11/06 06:36:04;;;;;;;4.28;1.60;;;;;;;;;;5064663;28;20032;-70
2021/11/06 06:38:31;;;;;;;6.70;1.30;;;;;;;;;;5054457;28;20029;-72
2021/11/06 06:40:57;;;;;;;3.72;1.45;;;;;;;;;;5056613;28;20472;-72
2021/11/06 06:43:23;;;;;;;2.97;1.33;;;;;;;;;;5050900;28;20027;-72
2021/11/06 06:45:49;;;;;;;5.15;1.73;;;;;;;;;;5052082;28;20104;-69
2021/11/06 06:48:15;;;;;;;3.83;1.58;;;;;;;;;;5057065;28;20514;-70
2021/11/06 06:50:46;;;;;;;2.20;1.20;;;;;;;;;;5053351;28;20059;-69
2021/11/06 06:53:12;;;;;;;3.38;1.20;;;;;;;;;;5055171;28;20119;-68
2021/11/06 06:55:38;;;;;;;2.63;1.25;;;;;;;;;;5064178;28;20460;-68
2021/11/06 06:58:04;;;;;;;6.97;1.40;;;;;;;;;;5057818;28;20037;-68
2021/11/06 07:00:30;;;;;;;4.63;1.88;;;;;;;;;;5061198;28;20434;-70
2021/11/06 07:02:56;;;;;;;3.53;1.42;;;;;;;;;;5039682;28;20923;-68
2021/11/06 07:05:22;;;;;;;1.80;1.00;;;;;;;;;;5027832;28;20028;-64
2021/11/06 07:07:48;;;;;;;6.18;2.00;;;;;;;;;;5044502;28;20029;-69
2021/11/06 07:10:14;;;;;;;5.93;2.10;;;;;;;;;;5049692;28;20028;-69
2021/11/06 07:12:41;;;;;;;6.22;2.97;;;;;;;;;;5049541;28;20041;-69
2021/11/06 07:15:07;;;;;;;5.28;2.35;;;;;;;;;;5050704;28;20100;-69
2021/11/06 07:17:34;;;;;;;8.85;3.53;;;;;;;;;;5046435;28;20095;-69
2021/11/06 07:20:00;;;;;;;9.48;3.55;;;;;;;;;;5044716;28;20036;-69
2021/11/06 07:22:26;;;;;;;8.25;3.13;;;;;;;;;;5047173;28;20032;-69
2021/11/06 07:24:52;;;;;;;6.95;3.10;;;;;;;;;;5057190;28;20036;-69
2021/11/06 07:27:18;;;;;;;6.60;3.38;;;;;;;;;;5044631;28;20036;-69
2021/11/06 07:29:44;;;;;;;5.55;2.90;;;;;;;;;;5039629;28;20476;-69
2021/11/06 07:32:10;;;;;;;5.05;2.50;;;;;;;;;;5048189;28;20088;-69
2021/11/06 07:34:36;;;;;;;4.95;2.28;;;;;;;;;;5049529;28;20060;-69
2021/11/06 07:37:03;;;;;;;5.60;2.20;;;;;;;;;;5060310;28;20496;-69
2021/11/06 07:39:29;;;;;;;4.30;2.15;;;;;;;;;;5050352;28;20029;-69
2021/11/06 07:41:55;;;;;;;5.75;2.13;;;;;;;;;;5051825;28;20089;-69
2021/11/06 07:44:21;;;;;;;3.85;2.10;;;;;;;;;;5049626;28;20041;-69
2021/11/06 07:46:47;;;;;;;5.70;2.58;;;;;;;;;;5051675;28;20094;-69
2021/11/06 07:49:13;;;;;;;9.02;3.45;;;;;;;;;;5049654;28;20036;-68
2021/11/06 07:51:39;;;;;;;6.53;3.40;;;;;;;;;;5049786;28;20480;-68
2021/11/06 07:54:05;;;;;;;5.70;3.30;;;;;;;;;;5051298;28;20052;-68
2021/11/06 07:56:34;;;;;;;5.03;2.90;;;;;;;;;;5045478;28;20123;-68
2021/11/06 07:59:00;;;;;;;5.63;2.90;;;;;;;;;;5049867;28;20119;-68
2021/11/06 08:01:26;;;;;;;4.63;2.63;;;;;;;;;;5049663;28;20021;-68
2021/11/06 08:03:52;;;;;;;5.35;2.60;;;;;;;;;;5034082;28;20021;-67
2021/11/06 08:06:18;;;;;;;5.93;2.88;;;;;;;;;;5052757;28;20031;-69
2021/11/06 08:08:45;;;;;;;5.25;2.90;;;;;;;;;;5049781;28;20049;-69
2021/11/06 08:11:11;;;;;;;5.78;2.85;;;;;;;;;;5048404;28;20086;-68
2021/11/06 08:13:37;;;;;;;9.43;2.88;;;;;;;;;;5048941;28;20024;-68
2021/11/06 08:16:03;;;;;;;7.65;2.60;;;;;;;;;;5049624;28;20469;-68
2021/11/06 08:18:29;;;;;;;5.25;2.60;;;;;;;;;;5051020;28;20021;-68
2021/11/06 08:20:56;;;;;;;4.15;2.28;;;;;;;;;;5051575;28;20017;-69
2021/11/06 08:23:22;;;;;;;4.85;2.35;;;;;;;;;;5049222;28;20033;-68
2021/11/06 08:25:48;;;;;;;4.82;2.63;;;;;;;;;;5049100;28;20435;-69
2021/11/06 08:28:15;;;;;;;4.78;2.20;;;;;;;;;;5051636;28;20029;-68
2021/11/06 08:30:41;;;;;;;4.05;2.10;;;;;;;;;;5050645;28;20104;-68
2021/11/06 08:33:07;;;;;;;3.92;2.03;;;;;;;;;;5049617;28;20045;-69
2021/11/06 08:35:33;;;;;;;6.55;2.55;;;;;;;;;;5048714;28;20048;-68
2021/11/06 08:37:59;;;;;;;4.85;2.22;;;;;;;;;;5048970;28;20107;-68
2021/11/06 08:40:26;;;;;;;4.93;1.92;;;;;;;;;;5048691;28;20111;-69
2021/11/06 08:42:55;;;;;;;2.90;1.58;;;;;;;;;;5033084;28;20044;-70
2021/11/06 08:45:21;;;;;;;2.13;1.20;;;;;;;;;;5048062;28;20031;-70
2021/11/06 08:47:47;;;;;;;2.53;1.20;;;;;;;;;;5048123;28;20029;-69
2021/11/06 08:50:16;;;;;;;5.60;2.58;;;;;;;;;;5048798;28;20079;-70
2021/11/06 08:52:41;;;;;;;;;;;;;;;;;;5048930;28;20087;-67
2021/11/06 08:55:08;;;;;;;4.22;2.50;;;;;;;;;;5045364;28;19921;-69
2021/11/06 08:57:38;;;;;;;6.53;2.58;;;;;;;;;;5039632;28;20098;-69
2021/11/06 09:00:08;;;;;;;5.05;2.55;;;;;;;;;;5049986;28;20484;-68
2021/11/06 09:02:34;;;;;;;5.97;2.60;;;;;;;;;;5048042;28;20060;-69
2021/11/06 09:05:01;;;;;;;4.50;1.83;;;;;;;;;;5050037;28;20029;-69
2021/11/06 09:07:27;;;;;;;3.95;1.80;;;;;;;;;;5059651;28;20469;-69
2021/11/06 09:09:53;;;;;;;4.25;1.88;;;;;;;;;;5048626;28;20028;-69
2021/11/06 09:12:19;;;;;;;3.03;1.50;;;;;;;;;;5051993;28;20085;-69
2021/11/06 09:14:45;;;;;;;3.50;1.50;;;;;;;;;;5048200;28;20025;-71
2021/11/06 09:17:11;;;;;;;2.15;0.93;;;;;;;;;;5052724;28;20051;-72
2021/11/06 09:19:37;;;;;;;2.33;1.08;;;;;;;;;;5048076;28;20032;-69
2021/11/06 09:22:03;;;;;;;1.90;1.30;;;;;;;;;;5049794;28;20029;-69
2021/11/06 09:24:29;;;;;;;1.70;1.20;;;;;;;;;;5051164;28;20469;-68
2021/11/06 09:26:55;;;;;;;3.05;1.23;;;;;;;;;;5048800;28;20481;-68
2021/11/06 09:29:21;;;;;;;2.83;1.23;;;;;;;;;;5049915;28;20507;-68
2021/11/06 09:31:47;;;;;;;2.42;1.27;;;;;;;;;;5047599;28;20076;-64
2021/11/06 09:34:13;;;;;;;3.13;1.45;;;;;;;;;;5046905;28;20081;-69
2021/11/06 09:36:39;;;;;;;2.30;1.30;;;;;;;;;;5049780;28;20021;-68
2021/11/06 09:39:07;;;;;;;4.18;1.40;;;;;;;;;;5049092;28;20082;-68
2021/11/06 09:41:34;;;;;;;2.60;1.23;;;;;;;;;;5047945;28;20037;-67
2021/11/06 09:44:00;;;;;;;3.30;1.40;;;;;;;;;;5047948;28;20025;-68
2021/11/06 09:46:26;;;;;;;3.10;1.20;;;;;;;;;;5047501;28;20025;-67
2021/11/06 09:48:52;;;;;;;2.05;1.00;;;;;;;;;;5031985;28;20032;-67
2021/11/06 09:51:19;;;;;;;1.73;0.95;;;;;;;;;;5049727;28;20029;-67
2021/11/06 09:53:47;;;;;;;3.00;1.10;;;;;;;;;;5046558;28;20033;-67
2021/11/06 09:56:16;;;;;;;3.20;1.10;;;;;;;;;;5046437;28;20039;-68
2021/11/06 09:58:42;;;;;;;1.73;0.80;;;;;;;;;;5046753;28;20075;-68
2021/11/06 10:01:08;;;;;;;2.70;1.33;;;;;;;;;;5045891;28;20099;-67
2021/11/06 10:03:35;;;;;;;4.88;1.10;;;;;;;;;;5048414;28;20048;-68
2021/11/06 10:06:02;;;;;;;2.03;0.93;;;;;;;;;;5047637;28;20036;-68
2021/11/06 10:08:34;;;;;;;1.88;1.15;;;;;;;;;;5048192;28;20029;-68
2021/11/06 10:11:01;;;;;;;3.35;1.13;;;;;;;;;;5047331;28;20076;-68
2021/11/06 10:13:28;;;;;;;2.58;1.10;;;;;;;;;;5046779;28;20063;-67
2021/11/06 10:15:57;;;;;;;3.10;1.40;;;;;;;;;;5047939;28;20013;-67
2021/11/06 10:18:23;;;;;;;;;;;;;;;;;;5051687;28;20036;-67
2021/11/06 10:20:57;;;;;;;6.15;1.10;;;;;;;;;;5047871;28;20353;-68
2021/11/06 10:23:27;;;;;;;3.17;1.00;;;;;;;;;;5047920;28;20021;-68
2021/11/06 10:26:13;;;;;;;2.35;0.90;;;;;;;;;;5047906;28;20057;-68
2021/11/06 10:28:39;;;;;;;2.67;1.02;;;;;;;;;;5049875;28;20151;-68
2021/11/06 10:31:05;;;;;;;1.80;1.00;;;;;;;;;;5047820;28;20025;-68
2021/11/06 10:33:41;;;;;;;2.30;0.80;;;;;;;;;;5049927;28;20049;-68
2021/11/06 10:36:15;;;;;;;3.25;1.00;;;;;;;;;;5053260;28;20485;-68
2021/11/06 10:38:41;;;;;;;2.33;0.73;;;;;;;;;;5051704;28;20366;-68
2021/11/06 10:41:08;;;;;;;1.63;0.75;;;;;;;;;;5051978;28;20043;-68
2021/11/06 10:43:37;;;;;;;2.20;0.80;;;;;;;;;;5052956;28;20025;-68
2021/11/06 10:46:04;;;;;;;3.30;0.68;;;;;;;;;;5051901;28;20022;-69
2021/11/06 10:48:33;;;;;;;1.25;0.60;;;;;;;;;;5053165;28;20098;-68
2021/11/06 10:51:09;;;;;;;1.67;0.70;;;;;;;;;;5053743;28;20025;-68
2021/11/06 10:53:44;;;;;;;1.17;0.60;;;;;;;;;;5050904;28;20637;-68
2021/11/06 10:56:13;;;;;;;2.08;0.60;;;;;;;;;;5050514;28;20021;-65
2021/11/06 10:58:39;;;;;;;0.88;0.40;;;;;;;;;;5049791;28;20425;-64
2021/11/06 11:01:07;;;;;;;2.50;0.50;;;;;;;;;;5051068;28;20108;-65
2021/11/06 11:03:35;;;;;;;0.93;0.45;;;;;;;;;;5053030;28;20025;-64
2021/11/06 11:06:05;;;;;;;1.10;0.47;;;;;;;;;;5051183;28;20040;-65
2021/11/06 11:08:31;;;;;;;2.00;0.70;;;;;;;;;;5050925;28;20544;-64
2021/11/06 11:11:07;;;;;;;1.65;0.90;;;;;;;;;;5050693;28;20124;-64
2021/11/06 11:13:34;;;;;;;1.85;0.82;;;;;;;;;;5050892;28;20051;-64
2021/11/06 11:16:11;;;;;;;3.13;1.20;;;;;;;;;;5050685;28;20040;-65
2021/11/06 11:18:38;;;;;;;0.60;0.30;;;;;;;;;;5052366;28;20387;-65
2021/11/06 11:21:21;;;;;;;1.95;0.40;;;;;;;;;;5052085;28;20031;-65
2021/11/06 11:23:47;;;;;;;0.30;0.30;;;;;;;;;;5050521;28;20055;-65
2021/11/06 11:26:14;;;;;;;1.55;0.60;;;;;;;;;;5050054;28;20021;-66
2021/11/06 11:28:40;;;;;;;0.50;0.30;;;;;;;;;;5052733;28;20029;-64
2021/11/06 11:31:07;;;;;;;0.20;0.10;;;;;;;;;;5050279;28;20539;-65
2021/11/06 11:33:37;;;;;;;0.65;0.20;;;;;;;;;;5051679;28;20483;-64
2021/11/06 11:36:04;;;;;;;0.55;0.30;;;;;;;;;;5051078;28;20043;-64
2021/11/06 11:38:31;;;;;;;0.32;0.30;;;;;;;;;;5050167;28;20075;-64
2021/11/06 11:41:09;;;;;;;1.00;0.20;;;;;;;;;;5049049;28;20190;-64
2021/11/06 11:43:51;;;;;;;0.75;0.30;;;;;;;;;;5049947;28;20108;-65
2021/11/06 11:46:22;;;;;;;0.30;0.30;;;;;;;;;;5048277;28;20436;-64
2021/11/06 11:48:56;;;;;;;0.63;0.28;;;;;;;;;;5050912;28;20018;-64
2021/11/06 11:51:32;;;;;;;0.63;0.40;;;;;;;;;;5053572;28;20020;-64
2021/11/06 11:53:59;;;;;;;0.43;0.20;;;;;;;;;;5052780;28;20032;-64
2021/11/06 11:56:28;;;;;;;0.95;0.30;;;;;;;;;;5049861;28;20032;-64
2021/11/06 11:58:54;;;;;;;0.28;0.20;;;;;;;;;;5049391;28;20443;-64
2021/11/06 12:01:24;;;;;;;1.38;0.38;;;;;;;;;;5049662;28;20017;-64
2021/11/06 12:03:50;;;;;;;0.20;0.20;;;;;;;;;;5050273;28;20025;-64
2021/11/06 12:06:22;;;;;;;0.40;0.30;;;;;;;;;;5052671;28;20479;-64
2021/11/06 12:08:48;;;;;;;2.10;0.20;;;;;;;;;;5049566;28;20550;-64
2021/11/06 12:11:16;;;;;;;0.20;0.13;;;;;;;;;;5049472;28;20029;-64
2021/11/06 12:13:47;;;;;;;0.65;0.20;;;;;;;;;;5049056;28;20067;-65
2021/11/06 12:16:15;;;;;;;0.40;0.30;;;;;;;;;;5048162;28;20046;-64
2021/11/06 12:18:41;;;;;;;0.98;0.20;;;;;;;;;;5051106;28;20021;-63
2021/11/06 12:21:16;;;;;;;0.32;0.20;;;;;;;;;;5050801;28;20053;-63
2021/11/06 12:24:02;;;;;;;0.20;0.10;;;;;;;;;;5049377;28;20131;-63
2021/11/06 12:26:30;;;;;;;0.40;0.20;;;;;;;;;;5045594;28;20124;-64
2021/11/06 12:29:02;;;;;;;3.15;0.20;;;;;;;;;;5051121;28;20416;-64
2021/11/06 12:31:38;;;;;;;0.10;0.10;;;;;;;;;;5048625;28;20041;-64
2021/11/06 12:34:06;;;;;;;2.90;0.40;;;;;;;;;;5049035;28;20052;-64
2021/11/06 12:36:32;;;;;;;0.90;0.37;;;;;;;;;;5050849;28;20032;-64
2021/11/06 12:39:03;;;;;;;2.63;0.40;;;;;;;;;;5050019;28;20056;-64
2021/11/06 12:41:33;;;;;;;2.75;0.60;;;;;;;;;;5049186;28;20453;-64
2021/11/06 12:44:00;;;;;;;1.92;1.00;;;;;;;;;;5048772;28;20028;-64
2021/11/06 12:46:27;;;;;;;1.92;0.77;;;;;;;;;;5048903;28;20476;-64
2021/11/06 12:48:55;;;;;;;1.38;0.40;;;;;;;;;;5032078;28;20025;-64
2021/11/06 12:51:22;;;;;;;0.70;0.38;;;;;;;;;;5051993;28;20059;-64
2021/11/06 12:53:50;;;;;;;0.82;0.50;;;;;;;;;;5048651;28;20534;-64
2021/11/06 12:56:21;;;;;;;0.98;0.47;;;;;;;;;;5048382;28;20036;-64
2021/11/06 12:58:59;;;;;;;0.43;0.20;;;;;;;;;;5047960;28;20029;-65
2021/11/06 13:01:27;;;;;;;1.20;0.32;;;;;;;;;;5047975;28;20029;-64
2021/11/06 13:03:54;;;;;;;;;;;;;;;;;;5033396;28;20071;-62
2021/11/06 13:06:21;;;;;;;0.50;0.30;;;;;;;;;;5052111;28;19912;-64
2021/11/06 13:09:07;;;;;;;0.97;0.50;;;;;;;;;;5048452;28;20086;-64
2021/11/06 13:11:52;;;;;;;1.42;0.60;;;;;;;;;;5047877;28;20530;-63
2021/11/06 13:14:27;;;;;;;0.82;0.35;;;;;;;;;;5048172;28;20033;-63
2021/11/06 13:16:59;;;;;;;2.63;0.80;;;;;;;;;;5048276;28;20017;-63
2021/11/06 13:19:40;;;;;;;3.40;0.98;;;;;;;;;;5048645;28;20029;-63
2021/11/06 13:22:06;;;;;;;2.58;1.20;;;;;;;;;;5033990;28;20025;-65
2021/11/06 13:24:47;;;;;;;3.00;1.50;;;;;;;;;;5050827;28;20025;-65
2021/11/06 13:27:32;;;;;;;2.50;1.50;;;;;;;;;;5050994;28;20025;-65
2021/11/06 13:30:17;;;;;;;7.28;1.73;;;;;;;;;;5050814;28;20029;-65
2021/11/06 13:32:55;;;;;;;2.88;1.27;;;;;;;;;;5047732;28;20065;-65
2021/11/06 13:35:21;;;;;;;;;;;;;;;;;;5048678;28;20032;-62
2021/11/06 13:38:07;;;;;;;3.83;1.45;;;;;;;;;;5047713;28;20296;-65
2021/11/06 13:40:42;;;;;;;2.00;1.00;;;;;;;;;;5048170;28;20029;-64
2021/11/06 13:43:22;;;;;;;3.47;1.27;;;;;;;;;;5047887;28;20025;-65
2021/11/06 13:46:06;;;;;;;2.42;1.17;;;;;;;;;;5048692;28;20445;-65
2021/11/06 13:48:36;;;;;;;4.40;1.70;;;;;;;;;;5047285;28;20032;-65
2021/11/06 13:51:12;;;;;;;5.60;2.35;;;;;;;;;;5049163;28;20033;-65
2021/11/06 13:53:39;;;;;;;6.75;2.20;;;;;;;;;;5046854;28;20380;-65
2021/11/06 13:56:05;;;;;;;3.88;1.75;;;;;;;;;;5047974;28;20117;-64
2021/11/06 13:58:31;;;;;;;5.10;2.33;;;;;;;;;;5048721;28;20072;-64
2021/11/06 14:00:57;;;;;;;4.85;2.08;;;;;;;;;;5047993;28;20490;-64
2021/11/06 14:03:24;;;;;;;5.82;2.10;;;;;;;;;;5051194;28;20146;-64
2021/11/06 14:05:50;;;;;;;4.43;1.63;;;;;;;;;;5048196;28;20044;-64
2021/11/06 14:08:16;;;;;;;5.43;2.60;;;;;;;;;;5047556;28;20047;-65
2021/11/06 14:10:43;;;;;;;10.93;3.70;;;;;;;;;;5051749;28;20044;-65
2021/11/06 14:13:10;;;;;;;10.20;4.40;;;;;;;;;;5051281;28;20317;-64
2021/11/06 14:15:42;;;;;;;13.32;3.00;;;;;;;;;;5053715;28;20468;-64
2021/11/06 14:18:14;;;;;;;7.03;3.05;;;;;;;;;;5053687;28;20031;-64
2021/11/06 14:20:41;;;;;;;9.25;3.78;;;;;;;;;;5051784;28;20025;-65
2021/11/06 14:23:11;;;;;;;9.93;3.58;;;;;;;;;;5050967;28;20043;-64
2021/11/06 14:25:42;;;;;;;5.78;2.88;;;;;;;;;;5050314;28;20112;-64
2021/11/06 14:28:34;;;;;;;13.32;5.53;;;;;;;;;;5053519;28;20154;-64
2021/11/06 14:31:01;;;;;;;10.90;4.68;;;;;;;;;;5035423;28;20041;-65
2021/11/06 14:33:30;;;;;;;9.65;5.03;;;;;;;;;;5052790;28;20516;-65
2021/11/06 14:36:17;;;;;;;11.75;6.35;;;;;;;;;;5053847;28;20500;-65
2021/11/06 14:38:46;;;;;;;19.52;8.23;;;;;;;;;;5052571;28;20037;-65
2021/11/06 14:41:12;;;;;;;13.05;6.30;;;;;;;;;;5051191;28;20558;-64
2021/11/06 14:43:49;;;;;;;12.65;6.00;;;;;;;;;;5051385;28;20052;-65